sensor_id;sensor_type;location;lat;lon;timestamp;pressure;altitude;pressure_sealevel;temperature;humidity
50702;BME280;36670;50.094;8.496;2022-10-17T00:01:10;100747.19;;;16.33;76.63
50702;BME280;36670;50.094;8.496;2022-10-17T00:03:36;100749.72;;;16.19;77.01
50702;BME280;36670;50.094;8.496;2022-10-17T00:06:07;100746.38;;;16.01;77.24
50702;BME280;36670;50.094;8.496;2022-10-17T00:08:33;100752.75;;;16.23;77.01
50702;BME280;36670;50.094;8.496;2022-10-17T00:11:01;100754.44;;;16.34;77.24
50702;BME280;36670;50.094;8.496;2022-10-17T00:13:27;100755.50;;;16.59;76.11
50702;BME280;36670;50.094;8.496;2022-10-17T00:15:53;100759.09;;;16.64;76.40
50702;BME280;36670;50.094;8.496;2022-10-17T00:18:18;100755.16;;;16.81;75.99
50702;BME280;36670;50.094;8.496;2022-10-17T00:20:44;100761.88;;;16.69;75.32
50702;BME280;36670;50.094;8.496;2022-10-17T00:23:09;100754.91;;;16.93;74.97
50702;BME280;36670;50.094;8.496;2022-10-17T00:25:34;100759.88;;;17.01;74.72
50702;BME280;36670;50.094;8.496;2022-10-17T00:28:01;100762.94;;;17.04;74.42
50702;BME280;36670;50.094;8.496;2022-10-17T00:30:26;100760.41;;;17.03;74.57
50702;BME280;36670;50.094;8.496;2022-10-17T00:32:51;100759.31;;;17.09;73.15
50702;BME280;36670;50.094;8.496;2022-10-17T00:35:17;100767.38;;;17.11;73.57
50702;BME280;36670;50.094;8.496;2022-10-17T00:37:42;100772.41;;;17.09;73.76
50702;BME280;36670;50.094;8.496;2022-10-17T00:40:08;100773.84;;;16.96;73.62
50702;BME280;36670;50.094;8.496;2022-10-17T00:42:34;100767.44;;;16.95;73.47
50702;BME280;36670;50.094;8.496;2022-10-17T00:45:04;100774.19;;;16.63;73.89
50702;BME280;36670;50.094;8.496;2022-10-17T00:47:30;100769.69;;;16.72;74.11
50702;BME280;36670;50.094;8.496;2022-10-17T00:49:57;100777.22;;;16.67;73.68
50702;BME280;36670;50.094;8.496;2022-10-17T00:52:25;100771.66;;;16.62;74.06
50702;BME280;36670;50.094;8.496;2022-10-17T00:54:55;100783.38;;;16.59;74.21
50702;BME280;36670;50.094;8.496;2022-10-17T00:57:22;100778.38;;;16.40;74.88
50702;BME280;36670;50.094;8.496;2022-10-17T00:59:50;100777.56;;;16.29;75.35
50702;BME280;36670;50.094;8.496;2022-10-17T01:02:19;100783.41;;;16.28;75.19
50702;BME280;36670;50.094;8.496;2022-10-17T01:04:47;100786.47;;;16.36;75.21
50702;BME280;36670;50.094;8.496;2022-10-17T01:07:13;100794.56;;;16.53;74.41
50702;BME280;36670;50.094;8.496;2022-10-17T01:09:39;100781.16;;;16.61;74.13
50702;BME280;36670;50.094;8.496;2022-10-17T01:16:03;100785.59;;;16.67;73.85
50702;BME280;36670;50.094;8.496;2022-10-17T01:18:25;100778.09;;;16.62;73.57
50702;BME280;36670;50.094;8.496;2022-10-17T01:21:10;100779.72;;;16.68;73.99
50702;BME280;36670;50.094;8.496;2022-10-17T01:24:10;100770.53;;;16.68;73.23
50702;BME280;36670;50.094;8.496;2022-10-17T01:29:31;100783.41;;;16.48;74.12
50702;BME280;36670;50.094;8.496;2022-10-17T01:32:01;100777.25;;;16.51;73.61
50702;BME280;36670;50.094;8.496;2022-10-17T01:37:30;100777.53;;;16.50;72.86
50702;BME280;36670;50.094;8.496;2022-10-17T01:40:09;100777.00;;;16.07;73.91
50702;BME280;36670;50.094;8.496;2022-10-17T01:42:43;100774.22;;;16.07;74.45
50702;BME280;36670;50.094;8.496;2022-10-17T01:45:51;100771.69;;;16.10;74.14
50702;BME280;36670;50.094;8.496;2022-10-17T01:48:18;100776.16;;;16.01;74.43
50702;BME280;36670;50.094;8.496;2022-10-17T01:50:48;100775.03;;;15.92;74.46
50702;BME280;36670;50.094;8.496;2022-10-17T01:53:25;100788.09;;;15.81;74.96
50702;BME280;36670;50.094;8.496;2022-10-17T01:55:53;100784.78;;;15.94;74.91
50702;BME280;36670;50.094;8.496;2022-10-17T01:58:29;100787.84;;;15.82;75.17
50702;BME280;36670;50.094;8.496;2022-10-17T02:00:58;100793.16;;;15.94;74.79
50702;BME280;36670;50.094;8.496;2022-10-17T02:03:26;100781.47;;;16.08;74.44
50702;BME280;36670;50.094;8.496;2022-10-17T02:05:52;100783.66;;;16.00;74.04
50702;BME280;36670;50.094;8.496;2022-10-17T02:08:28;100787.03;;;15.92;74.40
50702;BME280;36670;50.094;8.496;2022-10-17T02:11:10;100777.84;;;15.97;73.94
50702;BME280;36670;50.094;8.496;2022-10-17T02:30:13;100777.00;;;16.01;73.48
50702;BME280;36670;50.094;8.496;2022-10-17T02:32:49;100784.50;;;15.85;73.47
50702;BME280;36670;50.094;8.496;2022-10-17T02:35:19;100777.81;;;15.92;73.49
50702;BME280;36670;50.094;8.496;2022-10-17T02:37:46;100779.16;;;15.68;74.02
50702;BME280;36670;50.094;8.496;2022-10-17T02:40:12;100786.13;;;15.66;74.44
50702;BME280;36670;50.094;8.496;2022-10-17T02:42:42;100783.59;;;15.69;74.22
50702;BME280;36670;50.094;8.496;2022-10-17T02:45:09;100787.31;;;15.85;74.26
50702;BME280;36670;50.094;8.496;2022-10-17T02:47:54;100786.47;;;15.90;73.74
50702;BME280;36670;50.094;8.496;2022-10-17T02:50:28;100791.19;;;15.84;73.78
50702;BME280;36670;50.094;8.496;2022-10-17T02:53:00;100788.13;;;15.91;74.02
50702;BME280;36670;50.094;8.496;2022-10-17T02:55:36;100787.84;;;15.93;73.77
50702;BME280;36670;50.094;8.496;2022-10-17T02:58:06;100789.25;;;15.95;73.68
50702;BME280;36670;50.094;8.496;2022-10-17T03:00:33;100790.38;;;15.84;73.71
50702;BME280;36670;50.094;8.496;2022-10-17T03:02:59;100793.72;;;15.91;73.38
50702;BME280;36670;50.094;8.496;2022-10-17T03:05:27;100793.69;;;15.96;73.46
50702;BME280;36670;50.094;8.496;2022-10-17T03:07:54;100795.94;;;15.94;73.45
50702;BME280;36670;50.094;8.496;2022-10-17T03:10:20;100796.13;;;15.72;74.03
50702;BME280;36670;50.094;8.496;2022-10-17T03:12:45;100797.06;;;15.88;73.44
50702;BME280;36670;50.094;8.496;2022-10-17T03:15:11;100797.31;;;15.92;73.11
50702;BME280;36670;50.094;8.496;2022-10-17T03:17:37;100793.69;;;15.86;73.01
50702;BME280;36670;50.094;8.496;2022-10-17T03:20:03;100795.09;;;15.89;73.23
50702;BME280;36670;50.094;8.496;2022-10-17T03:22:29;100803.16;;;15.90;73.27
50702;BME280;36670;50.094;8.496;2022-10-17T03:24:54;100805.94;;;15.90;72.80
50702;BME280;36670;50.094;8.496;2022-10-17T03:27:20;100804.00;;;15.85;72.81
50702;BME280;36670;50.094;8.496;2022-10-17T03:29:45;100810.63;;;15.69;72.99
50702;BME280;36670;50.094;8.496;2022-10-17T03:32:10;100817.03;;;15.75;73.24
50702;BME280;36670;50.094;8.496;2022-10-17T03:34:36;100817.28;;;15.68;73.17
50702;BME280;36670;50.094;8.496;2022-10-17T03:37:01;100820.56;;;15.44;73.98
50702;BME280;36670;50.094;8.496;2022-10-17T03:39:26;100823.63;;;15.48;74.31
50702;BME280;36670;50.094;8.496;2022-10-17T03:41:52;100820.06;;;15.58;74.08
50702;BME280;36670;50.094;8.496;2022-10-17T03:44:17;100820.31;;;15.61;74.11
50702;BME280;36670;50.094;8.496;2022-10-17T03:46:42;100819.50;;;15.71;73.21
50702;BME280;36670;50.094;8.496;2022-10-17T03:49:08;100832.06;;;15.68;73.33
50702;BME280;36670;50.094;8.496;2022-10-17T03:51:34;100830.06;;;15.59;73.11
50702;BME280;36670;50.094;8.496;2022-10-17T03:54:00;100828.66;;;15.61;73.36
50702;BME280;36670;50.094;8.496;2022-10-17T03:56:25;100828.41;;;15.58;73.58
50702;BME280;36670;50.094;8.496;2022-10-17T03:58:52;100842.31;;;15.58;73.71
50702;BME280;36670;50.094;8.496;2022-10-17T04:01:18;100837.56;;;15.58;73.69
50702;BME280;36670;50.094;8.496;2022-10-17T04:03:47;100840.88;;;15.50;73.40
50702;BME280;36670;50.094;8.496;2022-10-17T04:06:12;100844.25;;;15.52;72.98
50702;BME280;36670;50.094;8.496;2022-10-17T04:08:38;100845.66;;;15.60;73.16
50702;BME280;36670;50.094;8.496;2022-10-17T04:11:05;100846.78;;;15.64;73.33
50702;BME280;36670;50.094;8.496;2022-10-17T04:13:31;100845.94;;;15.58;73.61
50702;BME280;36670;50.094;8.496;2022-10-17T04:16:05;100845.94;;;15.63;73.56
50702;BME280;36670;50.094;8.496;2022-10-17T04:18:30;100850.38;;;15.59;73.57
50702;BME280;36670;50.094;8.496;2022-10-17T04:20:56;100841.47;;;15.52;74.37
50702;BME280;36670;50.094;8.496;2022-10-17T04:23:21;100837.50;;;15.32;75.27
50702;BME280;36670;50.094;8.496;2022-10-17T04:25:47;100848.09;;;15.41;74.27
50702;BME280;36670;50.094;8.496;2022-10-17T04:28:13;100845.66;;;15.55;74.48
50702;BME280;36670;50.094;8.496;2022-10-17T04:30:39;100846.44;;;15.50;74.27
50702;BME280;36670;50.094;8.496;2022-10-17T04:33:04;100846.22;;;15.62;74.59
50702;BME280;36670;50.094;8.496;2022-10-17T04:35:29;100845.69;;;15.70;73.86
50702;BME280;36670;50.094;8.496;2022-10-17T04:37:55;100850.41;;;15.69;74.09
50702;BME280;36670;50.094;8.496;2022-10-17T04:40:20;100855.41;;;15.73;73.27
50702;BME280;36670;50.094;8.496;2022-10-17T04:42:46;100855.97;;;15.59;74.38
50702;BME280;36670;50.094;8.496;2022-10-17T04:45:11;100853.72;;;15.61;73.93
50702;BME280;36670;50.094;8.496;2022-10-17T04:47:36;100854.59;;;15.72;73.48
50702;BME280;36670;50.094;8.496;2022-10-17T04:50:03;100859.34;;;15.72;73.57
50702;BME280;36670;50.094;8.496;2022-10-17T04:52:28;100858.75;;;15.69;74.14
50702;BME280;36670;50.094;8.496;2022-10-17T04:54:53;100856.88;;;15.80;74.07
50702;BME280;36670;50.094;8.496;2022-10-17T04:57:19;100856.34;;;15.89;73.42
50702;BME280;36670;50.094;8.496;2022-10-17T04:59:44;100865.25;;;15.85;73.07
50702;BME280;36670;50.094;8.496;2022-10-17T05:02:09;100869.31;;;15.62;73.67
50702;BME280;36670;50.094;8.496;2022-10-17T05:04:35;100879.06;;;15.65;73.49
50702;BME280;36670;50.094;8.496;2022-10-17T05:07:00;100863.44;;;15.59;73.40
50702;BME280;36670;50.094;8.496;2022-10-17T05:09:26;100872.94;;;15.63;73.27
50702;BME280;36670;50.094;8.496;2022-10-17T05:11:51;100873.50;;;15.65;73.00
50702;BME280;36670;50.094;8.496;2022-10-17T05:14:17;100879.91;;;15.60;73.20
50702;BME280;36670;50.094;8.496;2022-10-17T05:16:42;100872.66;;;15.59;73.41
50702;BME280;36670;50.094;8.496;2022-10-17T05:19:07;100869.56;;;15.56;73.71
50702;BME280;36670;50.094;8.496;2022-10-17T05:21:32;100862.34;;;15.60;73.59
50702;BME280;36670;50.094;8.496;2022-10-17T05:23:58;100859.56;;;15.55;74.38
50702;BME280;36670;50.094;8.496;2022-10-17T05:26:24;100856.50;;;15.61;73.77
50702;BME280;36670;50.094;8.496;2022-10-17T05:28:49;100860.38;;;15.55;74.19
50702;BME280;36670;50.094;8.496;2022-10-17T05:31:16;100862.94;;;15.72;73.91
50702;BME280;36670;50.094;8.496;2022-10-17T05:33:42;100867.13;;;15.64;73.18
50702;BME280;36670;50.094;8.496;2022-10-17T05:36:07;100878.19;;;15.54;73.58
50702;BME280;36670;50.094;8.496;2022-10-17T05:38:33;100875.16;;;15.61;73.23
50702;BME280;36670;50.094;8.496;2022-10-17T05:41:00;100881.00;;;15.59;73.26
50702;BME280;36670;50.094;8.496;2022-10-17T05:43:26;100876.25;;;15.60;73.31
50702;BME280;36670;50.094;8.496;2022-10-17T05:45:52;100885.66;;;15.43;73.83
50702;BME280;36670;50.094;8.496;2022-10-17T05:48:17;100878.91;;;15.29;74.32
50702;BME280;36670;50.094;8.496;2022-10-17T05:50:43;100875.56;;;15.27;74.81
50702;BME280;36670;50.094;8.496;2022-10-17T05:53:08;100874.81;;;15.47;74.13
50702;BME280;36670;50.094;8.496;2022-10-17T05:55:34;100878.19;;;15.54;73.98
50702;BME280;36670;50.094;8.496;2022-10-17T05:57:59;100880.16;;;15.59;73.19
50702;BME280;36670;50.094;8.496;2022-10-17T06:00:25;100876.53;;;15.58;73.32
50702;BME280;36670;50.094;8.496;2022-10-17T06:02:51;100882.66;;;15.55;73.61
50702;BME280;36670;50.094;8.496;2022-10-17T06:05:16;100879.03;;;15.60;73.08
50702;BME280;36670;50.094;8.496;2022-10-17T06:07:41;100875.47;;;15.64;73.42
50702;BME280;36670;50.094;8.496;2022-10-17T06:10:07;100882.41;;;15.67;73.75
50702;BME280;36670;50.094;8.496;2022-10-17T06:12:32;100874.91;;;15.73;73.41
50702;BME280;36670;50.094;8.496;2022-10-17T06:14:58;100887.50;;;15.80;73.47
50702;BME280;36670;50.094;8.496;2022-10-17T06:17:23;100888.94;;;15.88;73.18
50702;BME280;36670;50.094;8.496;2022-10-17T06:19:49;100887.00;;;15.94;72.68
50702;BME280;36670;50.094;8.496;2022-10-17T06:22:14;100897.34;;;16.03;73.19
50702;BME280;36670;50.094;8.496;2022-10-17T06:24:39;100906.53;;;16.09;72.89
50702;BME280;36670;50.094;8.496;2022-10-17T06:27:05;100911.56;;;16.17;73.46
50702;BME280;36670;50.094;8.496;2022-10-17T06:29:30;100908.50;;;16.19;72.48
50702;BME280;36670;50.094;8.496;2022-10-17T06:31:56;100910.72;;;16.12;72.94
50702;BME280;36670;50.094;8.496;2022-10-17T06:34:21;100909.03;;;16.21;72.63
50702;BME280;36670;50.094;8.496;2022-10-17T06:36:47;100914.91;;;16.25;72.40
50702;BME280;36670;50.094;8.496;2022-10-17T06:39:12;100908.53;;;16.34;71.70
50702;BME280;36670;50.094;8.496;2022-10-17T06:41:38;100908.81;;;16.43;72.43
50702;BME280;36670;50.094;8.496;2022-10-17T06:44:05;100918.00;;;16.49;72.04
50702;BME280;36670;50.094;8.496;2022-10-17T06:46:36;100915.50;;;16.47;72.86
50702;BME280;36670;50.094;8.496;2022-10-17T06:49:01;100914.41;;;16.53;72.36
50702;BME280;36670;50.094;8.496;2022-10-17T06:51:29;100927.75;;;16.51;72.93
50702;BME280;36670;50.094;8.496;2022-10-17T06:53:56;100918.06;;;16.90;73.06
50702;BME280;36670;50.094;8.496;2022-10-17T06:56:21;100925.16;;;17.53;72.71
50702;BME280;36670;50.094;8.496;2022-10-17T06:58:47;100930.69;;;17.79;71.55
50702;BME280;36670;50.094;8.496;2022-10-17T07:01:14;100932.38;;;17.69;71.94
50702;BME280;36670;50.094;8.496;2022-10-17T07:03:40;100927.31;;;17.77;71.68
50702;BME280;36670;50.094;8.496;2022-10-17T07:06:05;100925.09;;;17.79;71.42
50702;BME280;36670;50.094;8.496;2022-10-17T07:08:31;100929.28;;;17.76;71.70
50702;BME280;36670;50.094;8.496;2022-10-17T07:10:57;100926.50;;;17.71;71.66
50702;BME280;36670;50.094;8.496;2022-10-17T07:13:23;100931.19;;;17.86;72.11
50702;BME280;36670;50.094;8.496;2022-10-17T07:15:48;100935.63;;;17.87;71.96
50702;BME280;36670;50.094;8.496;2022-10-17T07:18:13;100943.97;;;18.07;70.78
50702;BME280;36670;50.094;8.496;2022-10-17T07:20:39;100945.09;;;18.06;71.53
50702;BME280;36670;50.094;8.496;2022-10-17T07:23:05;100940.38;;;17.97;72.05
50702;BME280;36670;50.094;8.496;2022-10-17T07:25:30;100946.16;;;18.11;71.94
50702;BME280;36670;50.094;8.496;2022-10-17T07:27:56;100949.16;;;18.24;71.78
50702;BME280;36670;50.094;8.496;2022-10-17T07:30:21;100944.66;;;18.34;70.99
50702;BME280;36670;50.094;8.496;2022-10-17T07:32:47;100946.72;;;18.18;72.14
50702;BME280;36670;50.094;8.496;2022-10-17T07:35:13;100957.75;;;18.38;71.85
50702;BME280;36670;50.094;8.496;2022-10-17T07:37:39;100951.19;;;18.58;71.95
50702;BME280;36670;50.094;8.496;2022-10-17T07:40:06;100953.09;;;18.63;71.36
50702;BME280;36670;50.094;8.496;2022-10-17T07:42:37;100960.56;;;18.78;71.59
50702;BME280;36670;50.094;8.496;2022-10-17T07:45:03;100961.09;;;18.80;71.75
50702;BME280;36670;50.094;8.496;2022-10-17T07:47:29;100970.84;;;18.83;71.61
50702;BME280;36670;50.094;8.496;2022-10-17T07:49:55;100961.94;;;18.81;72.03
50702;BME280;36670;50.094;8.496;2022-10-17T07:52:21;100961.69;;;19.12;71.03
50702;BME280;36670;50.094;8.496;2022-10-17T07:54:46;100957.84;;;19.32;70.45
50702;BME280;36670;50.094;8.496;2022-10-17T07:57:11;100960.25;;;19.43;70.08
50702;BME280;36670;50.094;8.496;2022-10-17T07:59:37;100967.25;;;19.46;69.66
50702;BME280;36670;50.094;8.496;2022-10-17T08:02:03;100955.25;;;19.40;70.77
50702;BME280;36670;50.094;8.496;2022-10-17T08:04:28;100967.28;;;19.41;70.68
50702;BME280;36670;50.094;8.496;2022-10-17T08:06:54;100956.53;;;19.24;70.93
50702;BME280;36670;50.094;8.496;2022-10-17T08:09:20;100960.00;;;19.40;70.52
50702;BME280;36670;50.094;8.496;2022-10-17T08:11:45;100951.22;;;19.52;70.34
50702;BME280;36670;50.094;8.496;2022-10-17T08:14:11;100950.69;;;19.74;69.89
50702;BME280;36670;50.094;8.496;2022-10-17T08:16:37;100953.34;;;20.08;69.34
50702;BME280;36670;50.094;8.496;2022-10-17T08:19:03;100955.69;;;20.20;68.92
50702;BME280;36670;50.094;8.496;2022-10-17T08:21:29;100947.00;;;20.22;68.57
50702;BME280;36670;50.094;8.496;2022-10-17T08:23:55;100964.41;;;20.19;67.80
50702;BME280;36670;50.094;8.496;2022-10-17T08:26:20;100961.69;;;20.33;68.80
50702;BME280;36670;50.094;8.496;2022-10-17T08:28:46;100966.31;;;20.42;67.92
50702;BME280;36670;50.094;8.496;2022-10-17T08:31:14;100960.50;;;20.20;67.70
50702;BME280;36670;50.094;8.496;2022-10-17T08:33:40;100966.72;;;20.17;68.76
50702;BME280;36670;50.094;8.496;2022-10-17T08:36:07;100963.28;;;20.20;68.57
50702;BME280;36670;50.094;8.496;2022-10-17T08:38:34;100963.66;;;20.13;68.85
50702;BME280;36670;50.094;8.496;2022-10-17T08:41:02;100970.91;;;19.95;68.39
50702;BME280;36670;50.094;8.496;2022-10-17T08:43:40;100959.13;;;19.93;68.91
50702;BME280;36670;50.094;8.496;2022-10-17T08:46:09;100963.56;;;19.75;69.12
50702;BME280;36670;50.094;8.496;2022-10-17T08:48:38;100972.19;;;19.54;69.85
50702;BME280;36670;50.094;8.496;2022-10-17T08:51:17;100962.63;;;19.55;70.09
50702;BME280;36670;50.094;8.496;2022-10-17T08:53:51;100959.44;;;19.67;69.31
50702;BME280;36670;50.094;8.496;2022-10-17T08:56:25;100965.88;;;19.68;70.06
50702;BME280;36670;50.094;8.496;2022-10-17T08:58:51;100958.19;;;20.03;70.28
50702;BME280;36670;50.094;8.496;2022-10-17T09:01:33;100963.81;;;20.22;69.86
50702;BME280;36670;50.094;8.496;2022-10-17T09:04:03;100961.09;;;20.55;68.69
50702;BME280;36670;50.094;8.496;2022-10-17T09:06:40;100973.13;;;20.55;68.54
50702;BME280;36670;50.094;8.496;2022-10-17T09:09:11;100965.72;;;20.26;68.87
50702;BME280;36670;50.094;8.496;2022-10-17T09:12:03;100965.81;;;20.40;67.74
50702;BME280;36670;50.094;8.496;2022-10-17T09:17:31;100975.56;;;20.62;66.76
50702;BME280;36670;50.094;8.496;2022-10-17T09:20:10;100980.09;;;20.39;67.75
50702;BME280;36670;50.094;8.496;2022-10-17T09:23:04;100984.34;;;20.55;68.65
50702;BME280;36670;50.094;8.496;2022-10-17T09:25:44;100981.66;;;20.69;67.84
50702;BME280;36670;50.094;8.496;2022-10-17T09:28:16;100974.09;;;20.70;67.02
50702;BME280;36670;50.094;8.496;2022-10-17T09:30:46;100968.47;;;20.70;67.19
50702;BME280;36670;50.094;8.496;2022-10-17T09:33:25;100976.59;;;20.71;66.87
50702;BME280;36670;50.094;8.496;2022-10-17T09:35:53;100985.66;;;20.63;66.53
50702;BME280;36670;50.094;8.496;2022-10-17T09:38:22;100977.84;;;20.98;66.49
50702;BME280;36670;50.094;8.496;2022-10-17T09:40:58;100984.97;;;21.23;66.16
50702;BME280;36670;50.094;8.496;2022-10-17T09:43:24;100985.22;;;21.41;65.67
50702;BME280;36670;50.094;8.496;2022-10-17T09:46:25;100976.97;;;21.63;64.52
50702;BME280;36670;50.094;8.496;2022-10-17T09:49:01;100990.50;;;21.61;64.61
50702;BME280;36670;50.094;8.496;2022-10-17T09:51:29;100986.03;;;21.88;65.02
50702;BME280;36670;50.094;8.496;2022-10-17T09:54:15;100991.75;;;21.97;64.06
50702;BME280;36670;50.094;8.496;2022-10-17T09:57:02;100999.34;;;21.82;64.28
50702;BME280;36670;50.094;8.496;2022-10-17T09:59:38;101003.41;;;21.90;63.50
50702;BME280;36670;50.094;8.496;2022-10-17T10:02:20;101018.50;;;21.80;63.75
50702;BME280;36670;50.094;8.496;2022-10-17T10:07:20;101001.13;;;22.06;63.37
50702;BME280;36670;50.094;8.496;2022-10-17T10:09:47;100994.53;;;22.25;63.90
50702;BME280;36670;50.094;8.496;2022-10-17T10:12:27;100986.47;;;22.32;63.25
50702;BME280;36670;50.094;8.496;2022-10-17T10:14:53;100994.09;;;22.31;61.90
50702;BME280;36670;50.094;8.496;2022-10-17T10:17:32;100996.63;;;22.19;62.01
50702;BME280;36670;50.094;8.496;2022-10-17T10:19:58;100999.34;;;22.38;62.09
50702;BME280;36670;50.094;8.496;2022-10-17T10:22:24;100998.44;;;22.52;62.72
50702;BME280;36670;50.094;8.496;2022-10-17T10:25:06;101006.00;;;22.79;62.07
50702;BME280;36670;50.094;8.496;2022-10-17T10:27:32;101001.94;;;22.71;61.14
50702;BME280;36670;50.094;8.496;2022-10-17T10:29:58;101002.84;;;22.80;61.84
50702;BME280;36670;50.094;8.496;2022-10-17T10:32:29;100994.03;;;22.73;61.15
50702;BME280;36670;50.094;8.496;2022-10-17T10:34:59;101001.44;;;22.69;62.37
50702;BME280;36670;50.094;8.496;2022-10-17T10:37:27;101000.84;;;22.81;61.33
50702;BME280;36670;50.094;8.496;2022-10-17T10:39:58;101005.94;;;23.15;60.97
50702;BME280;36670;50.094;8.496;2022-10-17T10:42:36;101006.66;;;23.21;60.83
50702;BME280;36670;50.094;8.496;2022-10-17T10:45:04;100999.69;;;23.50;60.63
50702;BME280;36670;50.094;8.496;2022-10-17T10:47:55;101000.34;;;23.47;60.11
50702;BME280;36670;50.094;8.496;2022-10-17T10:50:28;100998.56;;;23.51;59.51
50702;BME280;36670;50.094;8.496;2022-10-17T10:53:03;101005.59;;;23.71;60.16
50702;BME280;36670;50.094;8.496;2022-10-17T10:55:35;101006.97;;;23.82;59.63
50702;BME280;36670;50.094;8.496;2022-10-17T10:58:23;101004.81;;;23.79;59.02
50702;BME280;36670;50.094;8.496;2022-10-17T11:00:51;101003.38;;;23.91;58.55
50702;BME280;36670;50.094;8.496;2022-10-17T11:03:26;101002.03;;;23.88;58.15
50702;BME280;36670;50.094;8.496;2022-10-17T11:06:13;100995.94;;;23.95;56.59
50702;BME280;36670;50.094;8.496;2022-10-17T11:08:46;100999.31;;;24.14;58.26
50702;BME280;36670;50.094;8.496;2022-10-17T11:13:53;100994.47;;;24.06;57.43
50702;BME280;36670;50.094;8.496;2022-10-17T11:16:28;100989.69;;;24.07;57.54
50702;BME280;36670;50.094;8.496;2022-10-17T11:19:23;100991.19;;;24.22;57.58
50702;BME280;36670;50.094;8.496;2022-10-17T11:22:11;100990.31;;;24.03;56.96
50702;BME280;36670;50.094;8.496;2022-10-17T11:24:43;100986.66;;;23.94;57.42
50702;BME280;36670;50.094;8.496;2022-10-17T11:27:12;100991.50;;;24.11;57.69
50702;BME280;36670;50.094;8.496;2022-10-17T11:29:39;100989.34;;;24.08;57.12
50702;BME280;36670;50.094;8.496;2022-10-17T11:32:10;100992.56;;;24.33;57.34
50702;BME280;36670;50.094;8.496;2022-10-17T11:34:43;100996.41;;;24.63;56.63
50702;BME280;36670;50.094;8.496;2022-10-17T11:37:14;100994.78;;;24.62;57.20
50702;BME280;36670;50.094;8.496;2022-10-17T11:39:50;100997.78;;;24.83;56.60
50702;BME280;36670;50.094;8.496;2022-10-17T11:42:24;101001.75;;;25.00;55.11
50702;BME280;36670;50.094;8.496;2022-10-17T11:44:54;100998.41;;;24.98;55.82
50702;BME280;36670;50.094;8.496;2022-10-17T11:47:35;101004.41;;;24.87;56.04
50702;BME280;36670;50.094;8.496;2022-10-17T11:50:25;101007.22;;;24.96;54.26
50702;BME280;36670;50.094;8.496;2022-10-17T11:52:56;101006.38;;;24.87;55.54
50702;BME280;36670;50.094;8.496;2022-10-17T11:55:26;101005.22;;;25.05;55.86
50702;BME280;36670;50.094;8.496;2022-10-17T11:58:13;101012.34;;;25.12;55.09
50702;BME280;36670;50.094;8.496;2022-10-17T12:14:37;100979.94;;;25.09;55.38
50702;BME280;36670;50.094;8.496;2022-10-17T12:17:04;100978.16;;;24.96;55.12
50702;BME280;36670;50.094;8.496;2022-10-17T12:19:34;100977.44;;;25.25;54.98
50702;BME280;36670;50.094;8.496;2022-10-17T12:22:36;100983.75;;;25.13;55.30
50702;BME280;36670;50.094;8.496;2022-10-17T12:25:22;100983.75;;;25.31;55.45
50702;BME280;36670;50.094;8.496;2022-10-17T12:27:50;100978.03;;;25.48;54.60
50702;BME280;36670;50.094;8.496;2022-10-17T12:30:26;100985.84;;;25.60;54.32
50702;BME280;36670;50.094;8.496;2022-10-17T12:32:55;100995.75;;;25.75;55.03
50702;BME280;36670;50.094;8.496;2022-10-17T12:35:23;100996.13;;;25.65;53.86
50702;BME280;36670;50.094;8.496;2022-10-17T12:43:02;100993.53;;;25.89;53.70
50702;BME280;36670;50.094;8.496;2022-10-17T12:45:47;100992.78;;;25.71;53.52
50702;BME280;36670;50.094;8.496;2022-10-17T12:51:14;100994.69;;;25.50;53.95
50702;BME280;36670;50.094;8.496;2022-10-17T12:54:12;100999.28;;;25.63;54.30
50702;BME280;36670;50.094;8.496;2022-10-17T12:56:43;100995.47;;;25.59;54.75
50702;BME280;36670;50.094;8.496;2022-10-17T12:59:23;100995.78;;;25.66;54.18
50702;BME280;36670;50.094;8.496;2022-10-17T13:01:55;100992.34;;;25.52;54.26
50702;BME280;36670;50.094;8.496;2022-10-17T13:04:22;100998.03;;;25.43;55.12
50702;BME280;36670;50.094;8.496;2022-10-17T13:06:51;100994.41;;;25.34;55.04
50702;BME280;36670;50.094;8.496;2022-10-17T13:09:29;100986.09;;;25.11;55.31
50702;BME280;36670;50.094;8.496;2022-10-17T13:11:56;100982.91;;;25.39;55.00
50702;BME280;36670;50.094;8.496;2022-10-17T13:14:24;100981.91;;;25.82;54.91
50702;BME280;36670;50.094;8.496;2022-10-17T13:16:51;100988.66;;;25.99;55.07
50702;BME280;36670;50.094;8.496;2022-10-17T13:19:19;100991.50;;;25.99;54.35
50702;BME280;36670;50.094;8.496;2022-10-17T13:21:56;100982.09;;;26.16;54.23
50702;BME280;36670;50.094;8.496;2022-10-17T13:24:32;100977.41;;;26.20;53.66
50702;BME280;36670;50.094;8.496;2022-10-17T13:26:59;100971.41;;;26.43;53.57
50702;BME280;36670;50.094;8.496;2022-10-17T13:29:25;100976.41;;;26.67;52.72
50702;BME280;36670;50.094;8.496;2022-10-17T13:31:55;100975.72;;;26.91;52.96
50702;BME280;36670;50.094;8.496;2022-10-17T13:34:23;100985.72;;;26.88;51.42
50702;BME280;36670;50.094;8.496;2022-10-17T13:36:57;100990.03;;;26.73;50.74
50702;BME280;36670;50.094;8.496;2022-10-17T13:39:25;100990.72;;;26.70;51.07
50702;BME280;36670;50.094;8.496;2022-10-17T13:41:52;100997.41;;;26.87;50.94
50702;BME280;36670;50.094;8.496;2022-10-17T13:44:24;100996.53;;;26.74;51.00
50702;BME280;36670;50.094;8.496;2022-10-17T13:46:51;101000.34;;;26.78;50.42
50702;BME280;36670;50.094;8.496;2022-10-17T13:49:35;101002.19;;;26.74;50.35
50702;BME280;36670;50.094;8.496;2022-10-17T13:52:05;100990.88;;;26.74;50.47
50702;BME280;36670;50.094;8.496;2022-10-17T13:54:37;100991.03;;;26.48;50.60
50702;BME280;36670;50.094;8.496;2022-10-17T13:57:05;100997.31;;;26.53;51.14
50702;BME280;36670;50.094;8.496;2022-10-17T13:59:41;100995.66;;;26.31;50.35